createdAt,value
2022-07-30T00:00:13.551Z,60.40
2022-07-30T00:02:52.567Z,61.08
2022-07-30T00:05:19.818Z,61.22
2022-07-30T00:07:47.065Z,61.51
2022-07-30T00:10:14.434Z,61.08
2022-07-30T00:12:41.692Z,60.65
2022-07-30T00:15:08.935Z,59.37
2022-07-30T00:17:36.205Z,61.27
2022-07-30T00:20:03.449Z,62.03
2022-07-30T00:22:31.252Z,62.97
2022-07-30T00:24:58.675Z,63.42
2022-07-30T00:27:25.923Z,63.21
2022-07-30T00:29:53.162Z,62.02
2022-07-30T00:32:20.428Z,62.84
2022-07-30T00:34:47.670Z,64.00
2022-07-30T00:37:14.923Z,63.39
2022-07-30T00:39:42.190Z,63.18
2022-07-30T00:42:09.439Z,62.50
2022-07-30T00:44:36.675Z,61.61
2022-07-30T00:47:08.363Z,62.36
2022-07-30T00:49:35.641Z,62.25
2022-07-30T00:52:02.881Z,62.90
2022-07-30T00:54:30.136Z,63.25
2022-07-30T00:56:57.444Z,62.82
2022-07-30T00:59:24.940Z,63.96
2022-07-30T01:01:52.391Z,63.81
2022-07-30T01:04:19.687Z,64.23
2022-07-30T01:06:46.937Z,65.12
2022-07-30T01:09:14.209Z,64.68
2022-07-30T01:11:41.452Z,65.26
2022-07-30T01:14:08.683Z,64.52
2022-07-30T01:16:35.976Z,64.62
2022-07-30T01:19:05.109Z,65.11
2022-07-30T01:21:32.349Z,66.14
2022-07-30T01:23:59.611Z,65.71
2022-07-30T01:26:26.846Z,65.49
2022-07-30T01:28:54.083Z,65.71
2022-07-30T01:31:21.396Z,65.41
2022-07-30T01:33:48.684Z,65.29
2022-07-30T01:36:16.033Z,64.50
2022-07-30T01:38:43.278Z,64.79
2022-07-30T01:41:10.527Z,64.07
2022-07-30T01:43:37.802Z,63.15
2022-07-30T01:46:05.085Z,63.31
2022-07-30T01:48:32.355Z,63.11
2022-07-30T01:50:59.608Z,62.71
2022-07-30T01:53:26.849Z,62.14
2022-07-30T01:55:54.120Z,60.34
2022-07-30T01:58:21.404Z,60.43
2022-07-30T02:00:48.697Z,60.95
2022-07-30T02:03:16.045Z,61.43
2022-07-30T02:05:45.575Z,61.48
2022-07-30T02:08:12.842Z,61.99
2022-07-30T02:10:40.122Z,62.65
2022-07-30T02:13:07.359Z,59.16
2022-07-30T02:15:34.716Z,56.76
2022-07-30T02:18:01.987Z,55.33
2022-07-30T02:20:29.226Z,55.08
2022-07-30T02:22:56.600Z,54.69
2022-07-30T02:25:23.866Z,54.09
2022-07-30T02:27:51.118Z,53.65
2022-07-30T02:30:18.359Z,54.46
2022-07-30T02:32:45.615Z,55.65
2022-07-30T02:35:12.859Z,56.69
2022-07-30T02:37:43.759Z,58.35
2022-07-30T02:40:11.570Z,60.17
2022-07-30T02:42:38.829Z,61.23
2022-07-30T02:45:06.082Z,61.24
2022-07-30T02:47:33.328Z,61.83
2022-07-30T02:50:00.587Z,61.99
2022-07-30T02:52:27.844Z,63.09
2022-07-30T02:54:55.080Z,62.79
2022-07-30T02:57:22.355Z,57.33
2022-07-30T02:59:49.622Z,54.85
2022-07-30T03:02:16.907Z,53.49
2022-07-30T03:04:44.173Z,52.93
2022-07-30T03:07:16.422Z,52.31
2022-07-30T03:09:51.353Z,52.46
2022-07-30T03:12:19.533Z,51.43
2022-07-30T03:14:46.792Z,52.16
2022-07-30T03:17:14.028Z,53.17
2022-07-30T03:19:41.271Z,53.38
2022-07-30T03:22:08.535Z,53.73
2022-07-30T03:24:35.771Z,53.75
2022-07-30T03:27:03.238Z,55.29
2022-07-30T03:29:30.801Z,57.45
2022-07-30T03:31:58.132Z,57.80
2022-07-30T03:34:27.508Z,58.30
2022-07-30T03:36:56.069Z,58.18
2022-07-30T03:39:23.321Z,59.37
2022-07-30T03:41:50.574Z,59.72
2022-07-30T03:44:17.847Z,59.22
2022-07-30T03:46:45.172Z,58.68
2022-07-30T03:49:12.580Z,58.21
2022-07-30T03:51:39.877Z,58.86
2022-07-30T03:54:11.627Z,58.94
2022-07-30T03:56:40.493Z,59.54
2022-07-30T03:59:07.741Z,59.96
2022-07-30T04:01:35.053Z,59.75
2022-07-30T04:04:02.641Z,60.14
2022-07-30T04:06:29.944Z,60.86
2022-07-30T04:08:57.242Z,60.38
2022-07-30T04:11:41.437Z,60.00
2022-07-30T04:14:23.105Z,59.71
2022-07-30T04:16:50.384Z,58.95
2022-07-30T04:19:17.672Z,58.88
2022-07-30T04:21:44.937Z,58.61
2022-07-30T04:24:12.212Z,58.29
2022-07-30T04:26:39.443Z,57.93
2022-07-30T04:29:06.695Z,57.03
2022-07-30T04:31:33.985Z,57.35
2022-07-30T04:34:07.231Z,57.02
2022-07-30T04:36:34.505Z,57.16
2022-07-30T04:39:01.740Z,57.15
2022-07-30T04:41:28.972Z,56.82
2022-07-30T04:44:11.820Z,56.48
2022-07-30T04:46:39.109Z,55.58
2022-07-30T04:49:06.409Z,55.55
2022-07-30T04:51:33.713Z,55.31
2022-07-30T04:54:00.950Z,55.53
2022-07-30T04:56:28.203Z,55.68
2022-07-30T04:58:55.456Z,56.66
2022-07-30T05:01:22.789Z,57.96
2022-07-30T05:03:50.064Z,57.26
2022-07-30T05:06:17.301Z,55.25
2022-07-30T05:08:44.563Z,54.16
2022-07-30T05:11:11.815Z,54.52
2022-07-30T05:13:39.061Z,52.45
2022-07-30T05:16:08.049Z,53.41
2022-07-30T05:18:35.327Z,52.59
2022-07-30T05:21:02.603Z,52.38
2022-07-30T05:23:29.847Z,53.13
2022-07-30T05:25:57.180Z,53.37
2022-07-30T05:28:24.440Z,53.92
2022-07-30T05:30:51.718Z,54.23
2022-07-30T05:33:19.054Z,51.29
2022-07-30T05:35:46.316Z,50.66
2022-07-30T05:38:13.557Z,48.35
2022-07-30T05:40:42.818Z,50.73
2022-07-30T05:43:10.090Z,50.34
2022-07-30T05:45:37.363Z,51.34
2022-07-30T05:48:04.615Z,48.33
2022-07-30T05:50:31.903Z,47.67
2022-07-30T05:52:59.149Z,47.20
2022-07-30T05:55:26.442Z,46.55
2022-07-30T05:57:53.675Z,46.50
2022-07-30T06:00:21.073Z,42.45
2022-07-30T06:02:48.345Z,44.25
2022-07-30T06:05:16.555Z,43.94
2022-07-30T06:07:43.788Z,44.59
2022-07-30T06:10:11.052Z,47.29
2022-07-30T06:12:38.297Z,46.15
2022-07-30T06:15:05.541Z,47.47
2022-07-30T06:17:41.216Z,47.94
2022-07-30T06:20:08.902Z,46.79
2022-07-30T06:22:36.151Z,46.94
2022-07-30T06:25:03.388Z,47.00
2022-07-30T06:27:36.598Z,44.99
2022-07-30T06:30:06.557Z,45.17
2022-07-30T06:32:33.815Z,44.73
2022-07-30T06:35:04.511Z,45.74
2022-07-30T06:38:00.677Z,44.84
2022-07-30T06:40:19.663Z,43.02
2022-07-30T06:42:46.942Z,43.53
2022-07-30T06:45:14.187Z,43.51
2022-07-30T06:47:41.430Z,41.98
2022-07-30T06:50:08.763Z,41.02
2022-07-30T06:52:36.427Z,40.27
2022-07-30T06:55:03.677Z,39.52
2022-07-30T06:57:31.033Z,40.83
2022-07-30T07:00:01.892Z,40.05
2022-07-30T07:02:29.824Z,41.45
2022-07-30T07:04:57.084Z,41.14
2022-07-30T07:07:40.919Z,41.36
2022-07-30T07:10:08.928Z,43.53
2022-07-30T07:12:36.175Z,42.69
2022-07-30T07:15:04.306Z,40.92
2022-07-30T07:17:31.578Z,41.99
2022-07-30T07:19:59.990Z,42.27
2022-07-30T07:22:29.099Z,40.34
2022-07-30T07:24:56.364Z,39.59
2022-07-30T07:27:23.648Z,41.87
2022-07-30T07:30:01.650Z,42.01
2022-07-30T07:32:33.127Z,41.95
2022-07-30T07:35:00.391Z,41.41
2022-07-30T07:37:27.743Z,42.94
2022-07-30T07:39:54.983Z,40.82
2022-07-30T07:42:22.215Z,39.48
2022-07-30T07:44:49.601Z,40.73
2022-07-30T07:47:16.847Z,42.31
2022-07-30T07:49:44.094Z,42.95
2022-07-30T07:52:11.442Z,41.94
2022-07-30T07:54:40.674Z,41.69
2022-07-30T07:57:07.932Z,42.87
2022-07-30T07:59:39.706Z,42.93
2022-07-30T08:02:08.030Z,40.93
2022-07-30T08:04:35.721Z,42.20
2022-07-30T08:07:03.674Z,43.26
2022-07-30T08:09:43.513Z,42.55
2022-07-30T08:12:11.777Z,42.27
2022-07-30T08:14:39.022Z,40.91
2022-07-30T08:17:06.704Z,42.53
2022-07-30T08:19:34.477Z,42.21
2022-07-30T08:22:01.743Z,40.93
2022-07-30T08:24:28.989Z,41.46
2022-07-30T08:26:56.251Z,41.68
2022-07-30T08:29:23.495Z,39.87
2022-07-30T08:31:50.751Z,39.91
2022-07-30T08:34:18.020Z,40.13
2022-07-30T08:36:45.290Z,41.42
2022-07-30T08:39:12.547Z,42.24
2022-07-30T08:41:39.826Z,40.92
2022-07-30T08:44:12.634Z,40.20
2022-07-30T08:46:40.287Z,40.94
2022-07-30T08:49:10.961Z,40.62
2022-07-30T08:51:38.791Z,41.04
2022-07-30T08:54:06.035Z,42.18
2022-07-30T08:56:33.284Z,40.64
2022-07-30T08:59:00.549Z,42.38
2022-07-30T09:01:27.789Z,39.41
2022-07-30T09:03:55.209Z,40.95
2022-07-30T09:06:22.505Z,40.39
2022-07-30T09:08:49.741Z,40.30
2022-07-30T09:11:17.000Z,40.07
2022-07-30T09:13:44.246Z,40.60
2022-07-30T09:16:11.529Z,41.16
2022-07-30T09:18:38.801Z,40.86
2022-07-30T09:21:06.050Z,41.75
2022-07-30T09:23:33.317Z,39.87
2022-07-30T09:26:00.599Z,39.26
2022-07-30T09:28:27.865Z,41.01
2022-07-30T09:30:55.132Z,39.21
2022-07-30T09:33:22.367Z,39.48
2022-07-30T09:35:50.704Z,39.12
2022-07-30T09:38:17.957Z,40.37
2022-07-30T09:40:45.236Z,38.86
2022-07-30T09:43:13.227Z,38.67
2022-07-30T09:45:40.505Z,38.13
2022-07-30T09:48:24.158Z,39.18
2022-07-30T09:50:51.450Z,36.89
2022-07-30T09:53:18.712Z,37.01
2022-07-30T09:55:47.710Z,36.46
2022-07-30T09:58:20.036Z,35.73
2022-07-30T10:03:38.428Z,36.30
2022-07-30T10:06:11.819Z,36.68
2022-07-30T10:08:39.271Z,37.48
2022-07-30T10:11:09.559Z,37.81
2022-07-30T10:13:37.087Z,37.44
2022-07-30T10:16:04.325Z,36.03
2022-07-30T10:18:33.888Z,35.77
2022-07-30T10:21:01.823Z,36.43
2022-07-30T10:23:33.028Z,37.68
2022-07-30T10:26:00.390Z,36.23
2022-07-30T10:28:38.447Z,37.72
2022-07-30T10:31:08.463Z,36.35
2022-07-30T10:33:54.341Z,36.18
2022-07-30T10:36:21.730Z,36.10
2022-07-30T10:38:52.616Z,36.18
2022-07-30T10:41:42.082Z,35.47
2022-07-30T10:44:07.473Z,35.99
2022-07-30T10:46:35.422Z,36.51
2022-07-30T10:49:02.952Z,34.38
2022-07-30T10:51:38.958Z,35.68
2022-07-30T10:54:06.196Z,35.52
2022-07-30T10:56:39.090Z,36.26
2022-07-30T10:59:07.952Z,34.01
2022-07-30T11:01:35.364Z,34.91
2022-07-30T11:04:03.864Z,33.77
2022-07-30T11:06:34.075Z,34.45
2022-07-30T11:09:01.775Z,34.57
2022-07-30T11:12:01.015Z,34.65
2022-07-30T11:14:16.251Z,35.77
2022-07-30T11:16:43.504Z,34.53
2022-07-30T11:21:58.036Z,32.87
2022-07-30T11:24:25.268Z,34.83
2022-07-30T11:26:52.503Z,33.23
2022-07-30T11:29:19.862Z,34.86
2022-07-30T11:32:03.984Z,32.69
2022-07-30T11:34:33.904Z,30.59
2022-07-30T11:37:01.234Z,33.87
2022-07-30T11:39:46.607Z,34.42
2022-07-30T11:42:13.868Z,35.77
2022-07-30T11:44:41.125Z,36.09
2022-07-30T11:47:08.379Z,35.38
2022-07-30T11:49:35.653Z,34.59
2022-07-30T11:52:03.240Z,34.26
2022-07-30T11:54:30.788Z,33.31
2022-07-30T11:57:03.661Z,33.52
2022-07-30T11:59:31.742Z,33.71
2022-07-30T12:01:59.478Z,35.70
2022-07-30T12:04:27.009Z,34.91
2022-07-30T12:06:54.266Z,34.99
2022-07-30T12:09:21.550Z,36.82
2022-07-30T12:11:49.008Z,36.52
2022-07-30T12:14:16.243Z,37.24
2022-07-30T12:16:43.598Z,37.22
2022-07-30T12:19:10.852Z,36.84
2022-07-30T12:21:38.098Z,35.13
2022-07-30T12:24:05.376Z,34.61
2022-07-30T12:26:32.619Z,34.22
2022-07-30T12:28:59.872Z,32.98
2022-07-30T12:31:27.156Z,33.16
2022-07-30T12:33:54.401Z,32.38
2022-07-30T12:36:23.301Z,32.44
2022-07-30T12:38:50.562Z,32.45
2022-07-30T12:41:17.833Z,33.41
2022-07-30T12:43:45.082Z,31.51
2022-07-30T12:46:15.053Z,30.28
2022-07-30T12:48:42.588Z,31.43
2022-07-30T12:51:10.701Z,31.81
2022-07-30T12:53:37.947Z,32.92
2022-07-30T12:56:05.218Z,31.89
2022-07-30T12:58:32.479Z,33.20
2022-07-30T13:00:59.726Z,33.57
2022-07-30T13:03:26.976Z,33.60
2022-07-30T13:05:55.268Z,34.41
2022-07-30T13:08:23.087Z,33.72
2022-07-30T13:10:50.353Z,34.75
2022-07-30T13:13:17.636Z,33.44
2022-07-30T13:15:53.914Z,33.91
2022-07-30T13:18:21.639Z,35.01
2022-07-30T13:20:48.891Z,33.47
2022-07-30T13:23:16.132Z,33.16
2022-07-30T13:25:43.402Z,32.95
2022-07-30T13:28:10.651Z,32.76
2022-07-30T13:30:37.896Z,32.42
2022-07-30T13:33:05.167Z,32.67
2022-07-30T13:35:32.405Z,31.91
2022-07-30T13:38:01.673Z,30.36
2022-07-30T13:40:28.904Z,30.71
2022-07-30T13:42:56.140Z,30.08
2022-07-30T13:45:23.394Z,30.33
2022-07-30T13:47:50.647Z,30.11
2022-07-30T13:50:19.073Z,29.70
2022-07-30T13:52:46.325Z,29.28
2022-07-30T13:55:13.599Z,30.52
2022-07-30T13:57:40.866Z,30.15
2022-07-30T14:00:12.328Z,30.09
2022-07-30T14:02:39.573Z,30.71
2022-07-30T14:05:06.846Z,31.79
2022-07-30T14:07:34.138Z,32.75
2022-07-30T14:10:01.597Z,31.71
2022-07-30T14:12:28.885Z,31.35
2022-07-30T14:14:56.130Z,32.62
2022-07-30T14:17:23.409Z,32.66
2022-07-30T14:19:50.658Z,32.06
2022-07-30T14:22:17.899Z,31.56
2022-07-30T14:24:45.170Z,30.02
2022-07-30T14:27:12.426Z,30.51
2022-07-30T14:29:39.687Z,31.10
2022-07-30T14:32:06.965Z,29.95
2022-07-30T14:34:34.218Z,29.32
2022-07-30T14:37:02.522Z,30.22
2022-07-30T14:39:30.057Z,30.11
2022-07-30T14:41:57.314Z,29.88
2022-07-30T14:44:24.574Z,27.11
2022-07-30T14:46:52.920Z,27.15
2022-07-30T14:49:20.506Z,27.05
2022-07-30T14:51:47.830Z,29.68
2022-07-30T14:54:15.085Z,27.82
2022-07-30T14:56:42.319Z,28.68
2022-07-30T14:59:09.577Z,30.27
2022-07-30T15:01:36.831Z,30.27
2022-07-30T15:04:04.111Z,30.60
2022-07-30T15:06:33.421Z,29.59
2022-07-30T15:09:00.666Z,28.58
2022-07-30T15:11:28.304Z,29.28
2022-07-30T15:13:58.425Z,28.93
2022-07-30T15:16:26.458Z,28.66
2022-07-30T15:18:53.687Z,28.73
2022-07-30T15:21:20.948Z,26.36
2022-07-30T15:23:48.194Z,26.59
2022-07-30T15:26:15.450Z,27.46
2022-07-30T15:28:42.738Z,28.03
2022-07-30T15:31:09.975Z,27.76
2022-07-30T15:33:37.338Z,28.26
2022-07-30T15:36:05.246Z,28.12
2022-07-30T15:38:32.519Z,27.73
2022-07-30T15:40:59.764Z,27.22
2022-07-30T15:43:26.997Z,28.10
2022-07-30T15:45:56.069Z,28.54
2022-07-30T15:48:26.821Z,26.90
2022-07-30T15:50:54.769Z,24.60
2022-07-30T15:53:22.004Z,26.41
2022-07-30T15:55:49.273Z,26.03
2022-07-30T15:58:16.540Z,27.17
2022-07-30T16:00:43.791Z,27.73
2022-07-30T16:03:11.044Z,27.65
2022-07-30T16:05:51.531Z,27.34
2022-07-30T16:08:19.838Z,27.95
2022-07-30T16:10:47.117Z,27.68
2022-07-30T16:13:14.509Z,28.09
2022-07-30T16:15:42.300Z,29.02
2022-07-30T16:18:09.565Z,28.67
2022-07-30T16:20:36.825Z,29.13
2022-07-30T16:23:04.065Z,28.84
2022-07-30T16:25:31.344Z,29.08
2022-07-30T16:27:58.619Z,28.94
2022-07-30T16:30:27.455Z,29.64
2022-07-30T16:32:57.038Z,28.06
2022-07-30T16:35:24.290Z,28.41
2022-07-30T16:37:53.558Z,28.61
2022-07-30T16:40:20.838Z,29.98
2022-07-30T16:42:48.075Z,28.67
2022-07-30T16:45:15.429Z,29.47
2022-07-30T16:47:42.688Z,28.24
2022-07-30T16:50:09.941Z,29.49
2022-07-30T16:52:37.183Z,30.24
2022-07-30T16:55:04.441Z,29.25
2022-07-30T16:57:31.688Z,30.41
2022-07-30T16:59:58.940Z,30.51
2022-07-30T17:02:26.201Z,30.27
2022-07-30T17:04:53.456Z,30.62
2022-07-30T17:07:20.729Z,30.77
2022-07-30T17:09:52.001Z,30.63
2022-07-30T17:12:19.914Z,30.82
2022-07-30T17:14:52.806Z,30.09
2022-07-30T17:17:20.117Z,30.01
2022-07-30T17:19:47.377Z,30.00
2022-07-30T17:22:14.655Z,29.17
2022-07-30T17:24:41.981Z,28.76
2022-07-30T17:27:09.219Z,29.85
2022-07-30T17:29:49.625Z,30.55
2022-07-30T17:32:17.677Z,29.96
2022-07-30T17:34:44.954Z,30.55
2022-07-30T17:37:12.212Z,30.43
2022-07-30T17:40:26.913Z,29.80
2022-07-30T17:42:26.669Z,29.59
2022-07-30T17:44:53.941Z,29.16
2022-07-30T17:47:21.189Z,29.30
2022-07-30T17:49:49.053Z,28.93
2022-07-30T17:52:16.395Z,28.28
2022-07-30T17:54:43.649Z,28.62
2022-07-30T17:57:12.882Z,30.16
2022-07-30T17:59:40.148Z,31.22
2022-07-30T18:02:07.487Z,31.05
2022-07-30T18:04:34.915Z,31.48
2022-07-30T18:07:02.271Z,32.17
2022-07-30T18:09:29.515Z,31.98
2022-07-30T18:12:03.676Z,30.84
2022-07-30T18:14:31.110Z,29.84
2022-07-30T18:16:58.378Z,29.54
2022-07-30T18:19:27.418Z,30.19
2022-07-30T18:21:54.822Z,30.65
2022-07-30T18:24:24.693Z,30.87
2022-07-30T18:26:52.263Z,31.49
2022-07-30T18:29:19.514Z,31.67
2022-07-30T18:31:48.243Z,32.60
2022-07-30T18:34:15.497Z,32.99
2022-07-30T18:36:42.731Z,33.71
2022-07-30T18:39:09.988Z,33.70
2022-07-30T18:41:37.227Z,34.61
2022-07-30T18:44:04.507Z,33.57
2022-07-30T18:46:31.757Z,35.73
2022-07-30T18:49:10.586Z,36.82
2022-07-30T18:51:46.214Z,37.85
2022-07-30T18:54:13.466Z,38.58
2022-07-30T18:56:40.733Z,38.97
2022-07-30T18:59:07.991Z,40.21
2022-07-30T19:01:35.253Z,40.46
2022-07-30T19:04:02.543Z,41.43
2022-07-30T19:06:29.798Z,41.22
2022-07-30T19:08:57.041Z,41.46
2022-07-30T19:11:24.304Z,42.07
2022-07-30T19:13:51.555Z,42.16
2022-07-30T19:16:18.810Z,41.94
2022-07-30T19:18:46.089Z,41.14
2022-07-30T19:21:14.234Z,40.72
2022-07-30T19:23:41.625Z,40.97
2022-07-30T19:26:08.873Z,41.27
2022-07-30T19:28:36.131Z,42.09
2022-07-30T19:31:03.360Z,42.10
2022-07-30T19:33:30.618Z,41.96
2022-07-30T19:35:57.923Z,41.77
2022-07-30T19:38:25.167Z,41.98
2022-07-30T19:40:52.413Z,42.14
2022-07-30T19:43:23.783Z,42.63
2022-07-30T19:45:51.405Z,42.59
2022-07-30T19:48:29.621Z,43.80
2022-07-30T19:50:58.039Z,44.19
2022-07-30T19:53:25.978Z,44.08
2022-07-30T19:55:53.390Z,44.42
2022-07-30T19:58:22.782Z,45.35
2022-07-30T20:00:52.771Z,44.98
2022-07-30T20:03:26.219Z,45.46
2022-07-30T20:05:59.869Z,45.83
2022-07-30T20:08:27.217Z,45.45
2022-07-30T20:10:57.888Z,45.26
2022-07-30T20:13:44.665Z,44.51
2022-07-30T20:16:13.183Z,43.85
2022-07-30T20:18:40.436Z,43.47
2022-07-30T20:21:12.637Z,43.37
2022-07-30T20:23:42.079Z,42.82
2022-07-30T20:26:12.500Z,43.05
2022-07-30T20:28:40.379Z,42.85
2022-07-30T20:31:08.031Z,43.14
2022-07-30T20:33:39.138Z,44.09
2022-07-30T20:36:09.779Z,43.74
2022-07-30T20:38:37.393Z,43.80
2022-07-30T20:41:09.975Z,43.81
2022-07-30T20:43:52.128Z,44.14
2022-07-30T20:46:23.405Z,43.32
2022-07-30T20:48:51.071Z,44.12
2022-07-30T20:51:18.399Z,45.19
2022-07-30T20:53:47.640Z,45.91
2022-07-30T20:56:19.258Z,46.06
2022-07-30T20:58:48.213Z,45.16
2022-07-30T21:01:17.446Z,44.91
2022-07-30T21:03:48.145Z,45.15
2022-07-30T21:06:16.300Z,45.59
2022-07-30T21:08:45.445Z,45.47
2022-07-30T21:11:12.874Z,45.06
2022-07-30T21:13:41.996Z,45.48
2022-07-30T21:16:16.240Z,45.40
2022-07-30T21:18:50.000Z,45.88
2022-07-30T21:21:17.731Z,45.41
2022-07-30T21:23:56.559Z,45.73
2022-07-30T21:26:23.885Z,45.58
2022-07-30T21:28:51.154Z,45.45
2022-07-30T21:31:19.481Z,45.27
2022-07-30T21:34:06.769Z,45.50
2022-07-30T21:36:35.270Z,45.66
2022-07-30T21:39:02.600Z,46.06
2022-07-30T21:41:39.919Z,45.82
2022-07-30T21:44:17.527Z,45.38
2022-07-30T21:46:44.951Z,45.72
2022-07-30T21:49:12.333Z,45.32
2022-07-30T21:51:41.639Z,44.55
2022-07-30T21:54:13.074Z,44.25
2022-07-30T21:56:44.417Z,44.38
2022-07-30T21:59:11.786Z,43.83
2022-07-30T22:01:39.078Z,44.05
2022-07-30T22:04:16.501Z,44.02
2022-07-30T22:06:43.950Z,44.03
2022-07-30T22:09:19.242Z,44.31
2022-07-30T22:12:00.923Z,45.27
2022-07-30T22:14:29.305Z,46.40
2022-07-30T22:16:56.615Z,47.17
2022-07-30T22:19:23.881Z,47.90
2022-07-30T22:21:53.502Z,47.77
2022-07-30T22:24:29.618Z,48.05
2022-07-30T22:26:57.495Z,47.81
2022-07-30T22:29:27.570Z,48.08
2022-07-30T22:32:02.281Z,47.16
2022-07-30T22:34:32.159Z,46.90
2022-07-30T22:36:59.396Z,46.56
2022-07-30T22:39:32.271Z,46.15
2022-07-30T22:42:13.872Z,46.07
2022-07-30T22:44:45.987Z,46.38
2022-07-30T22:47:18.842Z,46.78
2022-07-30T22:49:55.196Z,46.93
2022-07-30T22:52:29.129Z,46.47
2022-07-30T22:55:02.190Z,45.65
2022-07-30T22:57:37.716Z,46.29
2022-07-30T23:03:21.462Z,46.89
2022-07-30T23:05:55.161Z,46.48
2022-07-30T23:08:30.219Z,46.60
2022-07-30T23:10:58.027Z,47.14
2022-07-30T23:13:25.295Z,47.69
2022-07-30T23:15:52.535Z,48.00
2022-07-30T23:18:19.785Z,48.88
2022-07-30T23:20:47.048Z,48.56
2022-07-30T23:23:14.292Z,48.17
2022-07-30T23:25:41.540Z,47.20
2022-07-30T23:28:08.807Z,46.83
2022-07-30T23:30:36.047Z,47.00
2022-07-30T23:33:03.304Z,46.47
2022-07-30T23:35:30.899Z,46.96
2022-07-30T23:37:58.183Z,45.97
2022-07-30T23:40:25.420Z,45.99
2022-07-30T23:42:52.696Z,45.76
2022-07-30T23:45:19.943Z,45.42
2022-07-30T23:48:01.786Z,45.17
2022-07-30T23:50:30.519Z,45.06
2022-07-30T23:52:57.787Z,45.57
2022-07-30T23:55:25.023Z,45.94
2022-07-30T23:57:52.281Z,45.48
